createdAt,value
2022-08-09T00:00:20.300Z,154646.34
2022-08-09T00:02:51.690Z,154659.38
2022-08-09T00:06:18.996Z,154642.50
2022-08-09T00:08:32.576Z,154630.75
2022-08-09T00:11:05.631Z,154626.84
2022-08-09T00:13:38.425Z,154628.19
2022-08-09T00:16:12.771Z,154615.16
2022-08-09T00:18:43.263Z,154591.75
2022-08-09T00:21:13.534Z,154617.78
2022-08-09T00:23:55.258Z,154607.38
2022-08-09T00:26:33.067Z,154603.47
2022-08-09T00:29:12.465Z,154596.94
2022-08-09T00:31:58.362Z,154607.38
2022-08-09T00:34:32.670Z,154617.78
2022-08-09T00:37:04.069Z,154623.00
2022-08-09T00:40:09.488Z,154609.97
2022-08-09T00:44:10.643Z,154619.06
2022-08-09T00:45:20.207Z,154625.56
2022-08-09T00:47:51.122Z,154629.47
2022-08-09T00:50:21.458Z,154634.66
2022-08-09T00:52:54.230Z,154628.19
2022-08-09T00:56:03.020Z,154643.78
2022-08-09T00:58:22.220Z,154629.47
2022-08-09T01:00:59.149Z,154645.06
2022-08-09T01:03:40.860Z,154650.28
2022-08-09T01:06:35.091Z,154652.91
2022-08-09T01:09:15.540Z,154656.81
2022-08-09T01:12:00.481Z,154665.88
2022-08-09T01:14:36.089Z,154664.56
2022-08-09T01:17:11.143Z,154660.66
2022-08-09T01:19:57.041Z,154654.19
2022-08-09T01:22:54.862Z,154639.88
2022-08-09T01:25:41.727Z,154607.38
2022-08-09T01:28:17.548Z,154604.75
2022-08-09T01:30:52.308Z,154600.84
2022-08-09T01:33:26.862Z,154606.06
2022-08-09T01:36:00.867Z,154607.38
2022-08-09T01:38:34.640Z,154609.97
2022-08-09T01:41:10.817Z,154604.75
2022-08-09T01:43:52.580Z,154590.41
2022-08-09T01:46:26.816Z,154599.56
2022-08-09T01:49:10.580Z,154602.19
2022-08-09T01:51:53.948Z,154607.38
2022-08-09T01:54:28.259Z,154606.06
2022-08-09T01:57:08.291Z,154596.94
2022-08-09T01:59:52.043Z,154567.00
2022-08-09T02:02:30.824Z,154572.19
2022-08-09T02:05:11.761Z,154596.94
2022-08-09T02:08:35.832Z,154596.94
2022-08-09T02:10:43.270Z,154591.75
2022-08-09T02:13:26.196Z,154568.31
2022-08-09T02:16:14.323Z,154543.63
2022-08-09T02:18:47.863Z,154548.81
2022-08-09T02:21:24.078Z,154537.09
2022-08-09T02:24:01.941Z,154535.81
2022-08-09T02:26:37.389Z,154529.31
2022-08-09T02:29:16.709Z,154529.31
2022-08-09T02:31:52.446Z,154516.28
2022-08-09T02:34:40.631Z,154512.38
2022-08-09T02:37:19.970Z,154521.50
2022-08-09T02:40:01.802Z,154499.41
2022-08-09T02:42:36.544Z,154512.38
2022-08-09T02:45:10.626Z,154509.81
2022-08-09T02:47:57.377Z,154538.44
2022-08-09T02:50:34.117Z,154531.91
2022-08-09T02:53:08.010Z,154537.09
2022-08-09T02:55:57.335Z,154528.03
2022-08-09T02:58:35.913Z,154538.44
2022-08-09T03:01:10.827Z,154548.81
2022-08-09T03:04:16.738Z,154547.53
2022-08-09T03:06:38.314Z,154552.72
2022-08-09T03:09:12.072Z,154563.13
2022-08-09T03:12:10.389Z,154548.81
2022-08-09T03:14:33.879Z,154550.09
2022-08-09T03:17:07.564Z,154537.09
2022-08-09T03:19:59.481Z,154551.41
2022-08-09T03:22:41.971Z,154561.78
2022-08-09T03:25:26.517Z,154547.53
2022-08-09T03:28:11.352Z,154509.81
2022-08-09T03:30:43.501Z,154490.31
2022-08-09T03:33:18.836Z,154498.13
2022-08-09T03:36:12.343Z,154500.72
2022-08-09T03:38:46.088Z,154507.19
2022-08-09T03:41:18.260Z,154498.13
2022-08-09T03:44:03.831Z,154482.50
2022-08-09T03:46:40.131Z,154496.78
2022-08-09T03:49:11.923Z,154499.41
2022-08-09T03:51:58.726Z,154511.09
2022-08-09T03:54:34.590Z,154518.91
2022-08-09T03:57:12.447Z,154511.09
2022-08-09T03:59:53.299Z,154504.63
2022-08-09T04:02:28.898Z,154502.00
2022-08-09T04:05:06.290Z,154508.53
2022-08-09T04:07:56.969Z,154511.09
2022-08-09T04:10:30.374Z,154496.78
2022-08-09T04:13:11.584Z,154515.00
2022-08-09T04:16:20.632Z,154550.09
2022-08-09T04:18:34.928Z,154544.91
2022-08-09T04:21:05.918Z,154554.03
2022-08-09T04:23:38.972Z,154554.03
2022-08-09T04:26:09.932Z,154552.72
2022-08-09T04:28:42.441Z,154576.09
2022-08-09T04:31:16.981Z,154578.72
2022-08-09T04:33:52.731Z,154582.63
2022-08-09T04:36:28.607Z,154602.19
2022-08-09T04:39:02.861Z,154603.47
2022-08-09T04:41:43.536Z,154619.06
2022-08-09T04:44:14.674Z,154638.59
2022-08-09T04:46:58.123Z,154642.50
2022-08-09T04:49:53.000Z,154628.19
2022-08-09T04:52:26.521Z,154659.38
2022-08-09T04:55:03.979Z,154676.25
2022-08-09T04:57:59.258Z,154717.91
2022-08-09T05:00:31.782Z,154769.91
2022-08-09T05:03:12.903Z,154789.44
2022-08-09T05:06:04.629Z,154832.38
2022-08-09T05:08:38.355Z,154840.16
2022-08-09T05:11:11.909Z,154887.06
2022-08-09T05:13:43.569Z,154893.56
2022-08-09T05:16:14.911Z,154913.09
2022-08-09T05:18:58.110Z,154933.91
2022-08-09T05:21:36.607Z,154950.84
2022-08-09T05:24:17.746Z,154952.13
2022-08-09T05:26:50.509Z,154991.19
2022-08-09T05:29:24.194Z,154923.50
2022-08-09T05:32:00.313Z,154948.22
2022-08-09T05:34:32.855Z,155006.81
2022-08-09T05:37:06.212Z,154972.94
2022-08-09T05:39:42.566Z,155045.84
2022-08-09T05:42:21.923Z,155052.34
2022-08-09T05:44:58.721Z,155155.25
2022-08-09T05:47:33.230Z,155120.13
2022-08-09T05:50:25.496Z,155077.09
2022-08-09T05:52:54.972Z,155091.41
2022-08-09T05:55:25.710Z,155069.25
2022-08-09T05:57:58.749Z,155064.06
2022-08-09T06:00:30.387Z,155113.56
2022-08-09T06:03:01.329Z,155101.88
2022-08-09T06:05:50.145Z,155204.75
2022-08-09T06:08:24.392Z,155256.81
2022-08-09T06:10:56.134Z,155290.69
2022-08-09T06:13:33.874Z,155177.38
2022-08-09T06:16:05.390Z,155178.66
2022-08-09T06:18:36.502Z,155217.72
2022-08-09T06:21:08.334Z,155180.00
2022-08-09T06:23:57.387Z,155160.47
2022-08-09T06:26:31.580Z,155180.00
2022-08-09T06:29:05.356Z,155147.44
2022-08-09T06:31:39.778Z,155166.97
2022-08-09T06:34:30.774Z,155200.84
2022-08-09T06:37:01.452Z,155225.56
2022-08-09T06:39:48.470Z,155183.88
2022-08-09T06:42:28.542Z,155204.75
2022-08-09T06:45:04.583Z,155221.66
2022-08-09T06:48:00.596Z,155207.31
2022-08-09T06:50:31.906Z,155219.06
2022-08-09T06:53:04.968Z,155202.13
2022-08-09T06:55:35.822Z,155180.00
2022-08-09T06:58:07.920Z,155189.13
2022-08-09T07:01:01.628Z,155273.78
2022-08-09T07:03:39.584Z,155398.88
2022-08-09T07:06:25.518Z,155376.69
2022-08-09T07:08:58.222Z,155387.13
2022-08-09T07:11:34.184Z,155366.28
2022-08-09T07:14:26.357Z,155363.69
2022-08-09T07:16:59.844Z,155349.38
2022-08-09T07:19:29.981Z,155362.34
2022-08-09T07:22:00.179Z,155454.88
2022-08-09T07:24:40.575Z,155354.56
2022-08-09T07:27:26.252Z,155320.63
2022-08-09T07:30:03.275Z,155366.28
2022-08-09T07:32:40.354Z,155341.53
2022-08-09T07:35:15.611Z,155414.50
2022-08-09T07:37:54.129Z,155509.59
2022-08-09T07:40:54.206Z,155629.56
2022-08-09T07:43:29.014Z,155646.50
2022-08-09T07:46:02.065Z,155583.94
2022-08-09T07:48:39.231Z,155603.50
2022-08-09T07:52:04.772Z,155795.19
2022-08-09T07:54:08.661Z,155896.94
2022-08-09T07:56:48.874Z,155913.88
2022-08-09T07:59:34.267Z,155737.78
2022-08-09T08:02:19.105Z,155669.97
2022-08-09T08:04:53.754Z,155733.84
2022-08-09T08:09:00.669Z,155759.91
2022-08-09T08:10:20.426Z,155787.38
2022-08-09T08:12:57.607Z,155912.56
2022-08-09T08:15:29.229Z,155958.22
2022-08-09T08:18:05.859Z,155855.16
2022-08-09T08:20:38.978Z,155911.28
2022-08-09T08:23:17.173Z,155893.00
2022-08-09T08:25:50.148Z,155883.88
2022-08-09T08:28:37.672Z,155913.88
2022-08-09T08:31:14.739Z,156026.13
2022-08-09T08:33:52.131Z,155975.22
2022-08-09T08:36:30.753Z,156006.56
2022-08-09T08:39:03.577Z,156109.59
2022-08-09T08:41:51.523Z,156189.28
2022-08-09T08:44:28.840Z,156406.06
2022-08-09T08:47:04.980Z,156503.97
2022-08-09T08:49:48.467Z,156604.66
2022-08-09T08:55:23.404Z,156616.41
2022-08-09T08:57:56.349Z,156596.81
2022-08-09T09:00:35.036Z,156655.59
2022-08-09T09:03:12.022Z,156598.09
2022-08-09T09:06:00.947Z,156544.47
2022-08-09T09:08:42.483Z,156442.63
2022-08-09T09:11:17.655Z,156402.13
2022-08-09T09:13:57.038Z,156513.13
2022-08-09T09:16:33.933Z,156650.38
2022-08-09T09:19:40.216Z,156602.03
2022-08-09T09:22:11.694Z,156612.47
2022-08-09T09:24:47.234Z,156543.19
2022-08-09T09:28:05.395Z,156637.28
2022-08-09T09:30:31.587Z,156692.16
2022-08-09T09:33:15.366Z,156692.16
2022-08-09T09:36:01.820Z,156694.81
2022-08-09T09:38:47.753Z,156647.75
2022-08-09T09:41:49.122Z,156650.38
2022-08-09T09:44:28.130Z,156566.75
2022-08-09T09:47:10.058Z,156626.84
2022-08-09T09:50:07.229Z,156564.13
2022-08-09T09:52:37.203Z,156646.44
2022-08-09T09:55:23.858Z,156677.78
2022-08-09T09:58:19.103Z,156675.19
2022-08-09T10:00:55.671Z,156924.94
2022-08-09T10:03:57.289Z,156765.41
2022-08-09T10:06:32.158Z,156838.56
2022-08-09T10:09:21.545Z,156876.50
2022-08-09T10:12:14.211Z,157022.97
2022-08-09T10:14:56.316Z,156877.78
2022-08-09T10:17:51.050Z,156928.81
2022-08-09T10:20:32.404Z,157038.66
2022-08-09T10:23:20.453Z,156871.28
2022-08-09T10:26:08.126Z,156978.50
2022-08-09T10:28:48.756Z,157083.16
2022-08-09T10:34:33.810Z,157157.72
2022-08-09T10:37:09.831Z,157271.59
2022-08-09T10:39:49.292Z,157317.38
2022-08-09T10:42:20.427Z,157363.16
2022-08-09T10:45:02.418Z,157356.63
2022-08-09T10:48:14.446Z,157355.34
2022-08-09T10:51:02.131Z,157292.50
2022-08-09T10:53:54.334Z,157555.63
2022-08-09T10:56:27.655Z,157556.91
2022-08-09T10:59:00.535Z,157546.47
2022-08-09T11:03:16.203Z,157482.31
2022-08-09T11:04:55.506Z,157516.34
2022-08-09T11:07:58.517Z,157431.28
2022-08-09T11:11:00.604Z,157405.13
2022-08-09T11:13:51.477Z,157326.53
2022-08-09T11:16:41.117Z,157227.06
2022-08-09T11:19:12.385Z,157230.97
2022-08-09T11:22:10.191Z,157160.34
2022-08-09T11:25:14.684Z,157094.97
2022-08-09T11:28:05.018Z,157170.81
2022-08-09T11:30:47.956Z,157152.47
2022-08-09T11:33:41.526Z,157211.34
2022-08-09T11:36:35.296Z,157439.09
2022-08-09T11:39:09.071Z,157592.31
2022-08-09T11:41:42.186Z,157614.59
2022-08-09T11:44:15.395Z,157636.84
2022-08-09T11:46:59.863Z,157378.84
2022-08-09T11:50:56.582Z,157609.38
2022-08-09T11:54:00.603Z,157670.88
2022-08-09T11:56:41.298Z,157761.28
2022-08-09T11:59:30.291Z,157647.31
2022-08-09T12:02:34.354Z,157601.47
2022-08-09T12:04:59.104Z,157673.47
2022-08-09T12:07:41.353Z,157723.28
2022-08-09T12:10:31.795Z,157581.84
2022-08-09T12:14:09.856Z,157423.41
2022-08-09T12:16:03.175Z,157488.84
2022-08-09T12:18:33.854Z,157411.63
2022-08-09T12:21:26.359Z,157649.94
2022-08-09T12:24:09.016Z,157849.00
2022-08-09T12:28:57.554Z,157690.53
2022-08-09T12:29:52.359Z,157792.69
2022-08-09T12:32:32.591Z,157775.69
2022-08-09T12:35:12.291Z,157752.09
2022-08-09T12:37:51.621Z,157879.19
2022-08-09T12:40:27.325Z,157824.13
2022-08-09T12:42:59.625Z,157664.34
2022-08-09T12:45:39.573Z,157657.78
2022-08-09T12:48:30.867Z,157723.28
2022-08-09T12:51:04.647Z,157660.41
2022-08-09T12:53:40.576Z,157625.06
2022-08-09T12:56:36.921Z,157621.13
2022-08-09T12:59:57.388Z,157820.22
2022-08-09T13:02:21.617Z,157843.78
2022-08-09T13:05:06.563Z,157938.16
2022-08-09T13:07:51.260Z,157752.09
2022-08-09T13:10:34.880Z,157642.06
2022-08-09T13:13:10.943Z,157749.50
2022-08-09T13:15:56.246Z,157901.47
2022-08-09T13:18:31.752Z,157777.00
2022-08-09T13:21:20.480Z,157786.16
2022-08-09T13:24:15.611Z,157762.56
2022-08-09T13:26:49.869Z,157883.13
2022-08-09T13:29:42.106Z,157908.00
2022-08-09T13:32:25.509Z,157818.88
2022-08-09T13:35:01.755Z,157908.00
2022-08-09T13:37:51.297Z,157935.53
2022-08-09T13:41:54.351Z,157948.63
2022-08-09T13:43:15.961Z,157866.06
2022-08-09T13:46:44.705Z,157898.84
2022-08-09T13:48:36.850Z,157888.34
2022-08-09T13:51:10.635Z,157863.41
2022-08-09T13:53:43.687Z,157873.91
2022-08-09T13:56:15.225Z,157741.63
2022-08-09T13:58:48.412Z,157682.66
2022-08-09T14:02:00.646Z,157591.00
2022-08-09T14:04:11.221Z,157592.31
2022-08-09T14:06:46.649Z,157560.88
2022-08-09T14:09:17.748Z,157570.09
2022-08-09T14:11:48.206Z,157636.84
2022-08-09T14:14:26.819Z,157780.94
2022-08-09T14:16:58.938Z,157864.75
2022-08-09T14:19:33.160Z,157952.56
2022-08-09T14:22:07.439Z,157977.44
2022-08-09T14:24:53.725Z,157760.00
2022-08-09T14:27:24.720Z,157683.94
2022-08-09T14:30:35.477Z,157786.16
2022-08-09T14:32:47.426Z,157845.13
2022-08-09T14:35:18.081Z,157863.41
2022-08-09T14:38:02.631Z,157842.47
2022-08-09T14:41:01.918Z,157795.34
2022-08-09T14:43:25.692Z,157741.63
2022-08-09T14:46:54.858Z,157708.81
2022-08-09T14:49:10.488Z,157592.31
2022-08-09T14:51:42.386Z,157766.53
2022-08-09T14:54:16.929Z,157807.13
2022-08-09T14:56:53.721Z,157786.16
2022-08-09T14:59:29.090Z,157753.41
2022-08-09T15:02:00.817Z,157723.28
2022-08-09T15:04:32.812Z,157779.63
2022-08-09T15:07:03.364Z,157689.19
2022-08-09T15:10:07.503Z,157617.19
2022-08-09T15:12:26.764Z,157594.97
2022-08-09T15:14:57.886Z,157448.28
2022-08-09T15:17:28.805Z,157433.88
2022-08-09T15:20:02.643Z,157462.66
2022-08-09T15:22:33.999Z,157437.81
2022-08-09T15:25:33.583Z,157432.56
2022-08-09T15:28:27.740Z,157382.78
2022-08-09T15:31:09.976Z,157367.09
2022-08-09T15:34:18.305Z,157386.72
2022-08-09T15:36:40.647Z,157389.38
2022-08-09T15:39:20.691Z,157388.03
2022-08-09T15:41:53.805Z,157350.09
2022-08-09T15:44:25.678Z,157399.84
2022-08-09T15:46:57.762Z,157427.34
2022-08-09T15:49:30.247Z,157409.00
2022-08-09T15:52:05.604Z,157365.78
2022-08-09T15:54:46.111Z,157331.78
2022-08-09T15:57:35.873Z,157329.19
2022-08-09T16:00:25.627Z,157329.19
2022-08-09T16:02:58.898Z,157335.69
2022-08-09T16:05:47.250Z,157322.59
2022-08-09T16:08:30.726Z,157261.13
2022-08-09T16:11:08.484Z,157265.06
2022-08-09T16:14:02.733Z,157268.94
2022-08-09T16:16:36.948Z,157265.06
2022-08-09T16:19:13.452Z,157266.34
2022-08-09T16:21:53.825Z,157262.41
2022-08-09T16:24:32.777Z,157280.75
2022-08-09T16:27:05.091Z,157265.06
2022-08-09T16:29:50.500Z,157259.84
2022-08-09T16:32:49.421Z,157246.72
2022-08-09T16:35:53.113Z,157189.09
2022-08-09T16:38:14.667Z,157160.34
2022-08-09T16:40:48.584Z,157152.47
2022-08-09T16:43:21.038Z,157093.63
2022-08-09T16:45:54.739Z,157111.94
2022-08-09T16:48:39.727Z,157106.72
2022-08-09T16:51:20.607Z,157093.63
2022-08-09T16:54:22.481Z,157079.28
2022-08-09T16:56:49.201Z,157066.13
2022-08-09T16:59:19.941Z,157079.28
2022-08-09T17:01:53.485Z,157055.69
2022-08-09T17:04:25.936Z,157060.91
2022-08-09T17:08:43.877Z,157053.03
2022-08-09T17:09:49.333Z,157050.44
2022-08-09T17:12:21.119Z,157046.50
2022-08-09T17:14:57.158Z,157033.41
2022-08-09T17:17:50.686Z,156986.38
2022-08-09T17:20:35.152Z,156968.03
2022-08-09T17:23:10.489Z,156969.41
2022-08-09T17:25:45.585Z,156951.06
2022-08-09T17:28:23.562Z,156937.97
2022-08-09T17:30:53.953Z,156923.59
2022-08-09T17:33:27.810Z,156894.81
2022-08-09T17:36:09.098Z,156877.78
2022-08-09T17:38:57.789Z,156862.13
2022-08-09T17:41:38.664Z,156829.47
2022-08-09T17:44:42.291Z,156824.19
2022-08-09T17:47:00.645Z,156829.47
2022-08-09T17:49:37.141Z,156824.19
2022-08-09T17:52:22.030Z,156820.31
2022-08-09T17:54:53.891Z,156820.31
2022-08-09T17:58:03.037Z,156786.31
2022-08-09T18:00:15.898Z,156770.63
2022-08-09T18:02:50.382Z,156760.19
2022-08-09T18:05:43.703Z,156737.94
2022-08-09T18:08:14.582Z,156747.09
2022-08-09T18:11:01.053Z,156747.09
2022-08-09T18:13:43.500Z,156739.25
2022-08-09T18:16:30.474Z,156743.16
2022-08-09T18:19:04.205Z,156724.88
2022-08-09T18:21:55.363Z,156724.88
2022-08-09T18:24:27.533Z,156723.50
2022-08-09T18:27:01.106Z,156717.00
2022-08-09T18:30:35.405Z,156697.41
2022-08-09T18:32:22.451Z,156707.84
2022-08-09T18:34:56.005Z,156676.50
2022-08-09T18:37:48.830Z,156658.19
2022-08-09T18:40:26.835Z,156641.22
2022-08-09T18:42:57.527Z,156643.81
2022-08-09T18:46:47.213Z,156641.22
2022-08-09T18:48:19.038Z,156624.22
2022-08-09T18:50:50.469Z,156603.31
2022-08-09T18:53:23.458Z,156611.16
2022-08-09T18:55:56.321Z,156598.09
2022-08-09T18:58:35.385Z,156607.25
2022-08-09T19:01:10.328Z,156605.94
2022-08-09T19:04:01.809Z,156587.66
2022-08-09T19:06:31.022Z,156564.13
2022-08-09T19:09:04.551Z,156557.59
2022-08-09T19:11:37.389Z,156565.47
2022-08-09T19:14:08.606Z,156553.66
2022-08-09T19:16:38.792Z,156543.19
2022-08-09T19:19:25.334Z,156588.94
2022-08-09T19:22:05.154Z,156577.19
2022-08-09T19:25:11.557Z,156552.38
2022-08-09T19:27:30.941Z,156509.19
2022-08-09T19:30:24.769Z,156464.84
2022-08-09T19:32:53.260Z,156450.47
2022-08-09T19:35:26.113Z,156408.66
2022-08-09T19:37:57.722Z,156394.28
2022-08-09T19:40:33.103Z,156360.38
2022-08-09T19:43:10.008Z,156313.28
2022-08-09T19:45:42.237Z,156253.25
2022-08-09T19:48:12.773Z,156242.78
2022-08-09T19:50:49.194Z,156244.09
2022-08-09T19:53:22.024Z,156206.28
2022-08-09T19:56:03.502Z,156177.53
2022-08-09T19:58:38.171Z,156159.19
2022-08-09T20:01:09.096Z,156144.84
2022-08-09T20:04:08.158Z,156140.97
2022-08-09T20:06:32.655Z,156117.47
2022-08-09T20:09:03.081Z,156123.97
2022-08-09T20:11:45.294Z,156131.81
2022-08-09T20:14:21.874Z,156099.16
2022-08-09T20:16:54.184Z,156079.59
2022-08-09T20:19:49.236Z,156084.81
2022-08-09T20:22:15.581Z,156069.16
2022-08-09T20:24:53.761Z,156041.78
2022-08-09T20:27:29.243Z,156024.78
2022-08-09T20:30:01.422Z,156026.13
2022-08-09T20:32:33.804Z,156020.91
2022-08-09T20:35:05.665Z,156026.13
2022-08-09T20:38:23.843Z,156005.22
2022-08-09T20:40:28.369Z,155992.22
2022-08-09T20:43:19.236Z,155992.22
2022-08-09T20:46:00.752Z,155993.50
2022-08-09T20:48:45.179Z,156018.28
2022-08-09T20:51:19.595Z,156010.44
2022-08-09T20:53:50.609Z,155996.13
2022-08-09T20:56:26.210Z,155980.44
2022-08-09T20:58:59.427Z,155984.34
2022-08-09T21:01:50.407Z,155960.81
2022-08-09T21:05:50.799Z,155960.81
2022-08-09T21:07:14.187Z,155925.59
2022-08-09T21:09:56.914Z,155913.88
2022-08-09T21:15:30.398Z,155891.72
2022-08-09T21:18:22.980Z,155896.94
2022-08-09T21:20:56.682Z,155893.00
2022-08-09T21:23:47.591Z,155894.31
2022-08-09T21:26:18.008Z,155866.94
2022-08-09T21:28:55.869Z,155849.94
2022-08-09T21:31:48.912Z,155863.00
2022-08-09T21:34:29.244Z,155853.88
2022-08-09T21:37:00.179Z,155831.72
2022-08-09T21:39:42.420Z,155814.75
2022-08-09T21:42:14.726Z,155817.38
2022-08-09T21:44:45.214Z,155804.31
2022-08-09T21:47:18.538Z,155795.19
2022-08-09T21:49:50.944Z,155771.75
2022-08-09T21:52:23.441Z,155771.75
2022-08-09T21:54:59.572Z,155770.41
2022-08-09T21:57:39.190Z,155744.28
2022-08-09T22:00:32.476Z,155729.94
2022-08-09T22:03:19.319Z,155720.81
2022-08-09T22:05:57.874Z,155686.94
2022-08-09T22:08:30.266Z,155707.78
2022-08-09T22:12:09.363Z,155696.03
2022-08-09T22:13:50.904Z,155669.97
2022-08-09T22:16:21.804Z,155660.84
2022-08-09T22:18:56.898Z,155651.69
2022-08-09T22:21:49.766Z,155650.41
2022-08-09T22:24:24.078Z,155632.19
2022-08-09T22:26:55.240Z,155599.59
2022-08-09T22:29:34.485Z,155583.94
2022-08-09T22:32:29.709Z,155582.66
2022-08-09T22:35:06.775Z,155557.91
2022-08-09T22:38:06.638Z,155546.09
2022-08-09T22:40:38.171Z,155542.16
2022-08-09T22:43:16.185Z,155525.25
2022-08-09T22:48:16.726Z,155512.19
2022-08-09T22:48:50.707Z,155500.47
2022-08-09T22:51:26.108Z,155497.91
2022-08-09T22:54:02.670Z,155488.78
2022-08-09T22:56:34.733Z,155503.09
2022-08-09T22:59:56.857Z,155509.59
2022-08-09T23:01:55.906Z,155488.78
2022-08-09T23:04:26.408Z,155471.81
2022-08-09T23:07:17.877Z,155467.94
2022-08-09T23:10:08.784Z,155454.88
2022-08-09T23:12:38.979Z,155477.00
2022-08-09T23:15:14.688Z,155424.91
2022-08-09T23:17:45.127Z,155413.22
2022-08-09T23:20:15.250Z,155394.94
2022-08-09T23:22:48.586Z,155385.81
2022-08-09T23:25:18.906Z,155379.31
2022-08-09T23:28:14.097Z,155355.88
2022-08-09T23:30:40.731Z,155344.16
2022-08-09T23:33:21.820Z,155310.22
2022-08-09T23:36:05.925Z,155305.00
2022-08-09T23:38:48.166Z,155294.59
2022-08-09T23:41:28.069Z,155273.78
2022-08-09T23:43:59.851Z,155275.06
2022-08-09T23:46:30.678Z,155252.91
2022-08-09T23:49:02.012Z,155249.03
2022-08-09T23:51:32.681Z,155239.91
2022-08-09T23:54:05.418Z,155228.16
2022-08-09T23:56:53.520Z,155224.28
2022-08-09T23:59:26.055Z,155234.69
